الصفحة الرئيسية
METAR-TAF:

METAR-TAF

مطار :

بلودير سيتي, نيفادا, الولايات المتحدة

دائرة عرض: 35-56-50N, خط طول: 114-51-37W, ارتفاع: 671 متر

مراقبة الطقس الحالي

تاريخ ووقت الإصدار 20 دقيقة قبل الساعة 10:35UTC
ريح 7 عقدة من الشمال
درجة الحرارة 23°درجة مئوية
الرطوبة 12%
ضغط 1020 hPa
الرؤية: 16.1 كم
سماء صافية

METAR: KBVU 291035Z AUTO 01007KT 10SM CLR 23/M08 A3012 RMK AO2

زمن: 03:55 (10:55 UTC)


TAF: مفقودة

أرصاد الطقس والتوقعات من أكثر من 4000 مطار (تقارير الطقس للمطار METAR والتنبؤ بالطقس بالمطارTAF).

المحطات المتاحة هي النقط الصفراء والحمراء على الخريطة.

حرك المؤشر فوق النقطة لمعرفة اسم المحطة.

ثم انقر لمعرفة أرصاد وتوقعات الطقس.

لتغيير الخارطة: اضغط على الأزرار الخضراء مع رمز الصليب الأسود للتكبير. على الزر الأخضر مع شرطة للتصغير، أو على الأسهم الخضراء للخرائط المجاورة.


METAR-TAF: